Data for 04/24/2006

Time Sea-Level Adjusted Pressure Absolute Pressure Temperature Relative Humidity Dew Point   
(mb) (inHg) (mb) (inHg) (C) (F) (%) (C) (F)
00:05 1025 30.27 854 25.22 -1.8 28.8 81 -4.7 23.5
00:10 1025 30.27 854 25.22 -1.8 28.8 80 -4.7 23.5
00:15 1025 30.27 854 25.22 -1.8 28.8 81 -4.7 23.6
00:20 1025 30.27 854 25.22 -1.7 28.9 78 -5 23
00:25 1025 30.27 854 25.22 -1.6 29.1 80 -4.7 23.6
00:30 1025 30.27 854 25.22 -1.7 28.9 80 -4.7 23.6
00:35 1025 30.27 854 25.22 -1.7 29 78 -5.1 22.9
00:40 1025 30.27 854 25.22 -1.6 29.1 79 -4.8 23.3
00:45 1025 30.27 854 25.22 -1.5 29.3 78 -4.8 23.4
00:50 1025 30.27 854 25.22 -1.6 29.1 80 -4.6 23.7
00:55 1025 30.27 854 25.22 -1.6 29.1 79 -4.8 23.4
01:00 1025 30.27 854 25.22 -1.7 29 80 -4.7 23.5
01:05 1025 30.27 854 25.22 -1.6 29.1 78 -4.9 23.1
01:10 1025 30.27 854 25.22 -1.5 29.2 78 -5 23.1
01:15 1025 30.27 854 25.22 -1.5 29.3 78 -4.8 23.3
01:20 1025 30.27 854 25.22 -1.5 29.3 78 -4.9 23.1
01:25 1025 30.27 854 25.22 -1.5 29.3 77 -5 23
01:30 1025 30.27 854 25.22 -1.5 29.4 77 -5 23.1
01:35 1025 30.27 854 25.22 -1.4 29.4 75 -5.3 22.5
01:40 1024 30.24 854 25.22 -1.4 29.5 75 -5.3 22.5
01:45 1024 30.24 854 25.22 -1.3 29.6 74 -5.4 22.3
01:50 1024 30.24 854 25.22 -1.3 29.6 75 -5.1 22.7
01:55 1024 30.24 854 25.22 -1.4 29.5 77 -5 23
02:00 1024 30.24 854 25.22 -1.4 29.5 77 -5 23.1
02:05 1024 30.24 853 25.19 -1.4 29.5 74 -5.4 22.2
02:10 1024 30.24 853 25.19 -1.3 29.6 75 -5.2 22.6
02:15 1024 30.24 853 25.19 -1.4 29.5 75 -5.3 22.5
02:20 1024 30.24 853 25.19 -1.4 29.4 74 -5.6 22
02:25 1024 30.24 853 25.19 -1.4 29.6 74 -5.4 22.2
02:30 1024 30.24 853 25.19 -1.4 29.5 74 -5.4 22.2
02:35 1024 30.24 853 25.19 -1.4 29.5 75 -5.3 22.5
02:40 1023 30.21 853 25.19 -1.5 29.4 75 -5.3 22.5
02:45 1023 30.21 852 25.16 -1.5 29.4 75 -5.3 22.4
02:50 1023 30.21 852 25.16 -1.4 29.4 75 -5.3 22.5
02:55 1023 30.21 852 25.16 -1.4 29.4 74 -5.5 22.2
03:00 1023 30.21 852 25.16 -1.4 29.5 75 -5.2 22.6
03:05 1023 30.21 852 25.16 -1.5 29.3 75 -5.3 22.4
03:10 1023 30.21 852 25.16 -1.5 29.2 75 -5.4 22.4
03:15 1023 30.21 853 25.19 -1.5 29.4 76 -5.2 22.7
03:20 1023 30.21 852 25.16 -1.5 29.3 76 -5.1 22.8
03:25 1023 30.21 852 25.16 -1.6 29.2 77 -5.1 22.8
03:30 1023 30.21 852 25.16 -1.6 29.2 76 -5.2 22.6
03:35 1023 30.21 853 25.19 -1.6 29.2 77 -5.2 22.7
03:40 1023 30.21 853 25.19 -1.5 29.2 74 -5.5 22.1
03:45 1023 30.21 853 25.19 -1.5 29.3 74 -5.5 22.1
03:50 1023 30.21 853 25.19 -1.5 29.3 75 -5.4 22.2
03:55 1023 30.21 852 25.16 -1.6 29.2 75 -5.3 22.4
04:00 1023 30.21 852 25.16 -1.6 29.1 77 -5.2 22.7
04:05 1023 30.21 852 25.16 -1.6 29.1 77 -5.1 22.8
04:10 1023 30.21 852 25.16 -1.6 29.1 77 -5.1 22.8
04:15 1023 30.21 852 25.16 -1.6 29.1 76 -5.3 22.5
04:20 1023 30.21 852 25.16 -1.6 29.2 75 -5.4 22.3
04:25 1023 30.21 852 25.16 -1.6 29.2 74 -5.6 22
04:30 1023 30.21 852 25.16 -1.5 29.2 73 -5.8 21.5
04:35 1023 30.21 852 25.16 -1.5 29.2 72 -6 21.2
04:40 1023 30.21 852 25.16 -1.5 29.3 73 -5.7 21.7
04:45 1023 30.21 852 25.16 -1.6 29.1 75 -5.5 22
04:50 1023 30.21 852 25.16 -1.5 29.3 74 -5.6 22
04:55 1023 30.21 852 25.16 -1.5 29.3 74 -5.5 22
05:00 1023 30.21 852 25.16 -1.5 29.3 73 -5.8 21.6
05:05 1023 30.21 852 25.16 -1.5 29.4 71 -6 21.2
05:10 1023 30.21 852 25.16 -1.5 29.3 72 -5.8 21.5
05:15 1023 30.21 852 25.16 -1.6 29.2 72 -5.9 21.3
05:20 1023 30.21 852 25.16 -1.5 29.3 73 -5.8 21.6
05:25 1023 30.21 852 25.16 -1.5 29.3 72 -5.9 21.3
05:30 1023 30.21 852 25.16 -1.5 29.3 71 -6.2 20.9
05:35 1023 30.21 852 25.16 -1.5 29.4 71 -6 21.2
05:40 1023 30.21 852 25.16 -1.5 29.4 71 -6 21.3
05:45 1023 30.21 852 25.16 -1.5 29.2 72 -6 21.1
05:50 1023 30.21 852 25.16 -1.5 29.3 72 -6 21.2
05:55 1023 30.21 852 25.16 -1.6 29.1 72 -6 21.1
06:00 1023 30.21 852 25.16 -1.5 29.3 72 -6 21.2
06:05 1023 30.21 852 25.16 -1.5 29.2 71 -6 21.1
06:10 1023 30.21 852 25.16 -1.6 29.2 72 -6.1 21.1
06:15 1023 30.21 852 25.16 -1.6 29.1 73 -5.8 21.6
06:20 1023 30.21 852 25.16 -1.6 29.1 72 -6 21.2
06:25 1022 30.18 852 25.16 -1.6 29.2 72 -6.1 21.1
06:30 1023 30.21 852 25.16 -1.6 29.1 73 -5.9 21.5
06:35 1023 30.21 852 25.16 -1.7 29 74 -5.7 21.7
06:40 1023 30.21 852 25.16 -1.7 28.9 76 -5.4 22.3
06:45 1023 30.21 852 25.16 -1.8 28.7 76 -5.5 22
06:50 1023 30.21 852 25.16 -1.9 28.6 76 -5.6 21.9
06:55 1023 30.21 852 25.16 -1.8 28.7 73 -6 21.2
07:00 1023 30.21 852 25.16 -1.8 28.7 74 -5.8 21.5
07:05 1023 30.21 852 25.16 -1.8 28.8 74 -5.9 21.4
07:10 1022 30.18 852 25.16 -1.7 29 72 -6.1 21.1
07:15 1023 30.21 852 25.16 -1.6 29.1 72 -6.1 21.1
07:20 1023 30.21 852 25.16 -1.6 29 72 -6 21.2
07:25 1023 30.21 852 25.16 -1.6 29.1 72 -6.1 21.1
07:30 1023 30.21 852 25.16 -1.6 29.2 71 -6.1 21.1
07:35 1023 30.21 852 25.16 -1.6 29.1 73 -5.8 21.5
07:40 1023 30.21 852 25.16 -1.7 29 75 -5.5 22.1
07:45 1023 30.21 852 25.16 -1.8 28.8 75 -5.6 21.9
07:50 1023 30.21 852 25.16 -1.6 29 73 -5.9 21.4
07:55 1022 30.18 852 25.16 -1.6 29.1 73 -5.8 21.5
08:00 1023 30.21 852 25.16 -1.5 29.2 73 -5.7 21.7
08:05 1023 30.21 852 25.16 -1.5 29.3 73 -5.7 21.7
08:10 1023 30.21 852 25.16 -1.5 29.3 74 -5.5 22.1
08:15 1023 30.21 852 25.16 -1.6 29 77 -5.2 22.7
08:20 1023 30.21 852 25.16 -1.8 28.8 79 -5 23
08:25 1023 30.21 852 25.16 -1.8 28.7 80 -4.8 23.3
08:30 1023 30.21 852 25.16 -1.9 28.6 82 -4.6 23.7
08:35 1023 30.21 852 25.16 -1.9 28.7 80 -4.9 23.2
08:40 1023 30.21 852 25.16 -1.8 28.7 80 -4.8 23.3
08:45 1023 30.21 852 25.16 -1.8 28.8 79 -5 23
08:50 1023 30.21 852 25.16 -1.6 29.1 77 -5.2 22.7
08:55 1023 30.21 852 25.16 -1.5 29.4 75 -5.3 22.5
09:00 1023 30.21 852 25.16 -1.4 29.5 75 -5.3 22.5
09:05 1023 30.21 852 25.16 -1.3 29.7 74 -5.3 22.5
09:10 1023 30.21 852 25.16 -1.1 30 72 -5.4 22.2
09:15 1023 30.21 852 25.16 -1 30.3 72 -5.4 22.2
09:20 1023 30.21 852 25.16 -0.9 30.3 72 -5.4 22.2
09:25 1023 30.21 852 25.16 -0.8 30.5 72 -5.3 22.4
09:30 1023 30.21 852 25.16 -0.8 30.6 71 -5.4 22.2
09:35 1023 30.21 852 25.16 -0.8 30.6 71 -5.4 22.2
09:40 1023 30.21 852 25.16 -0.7 30.7 70 -5.6 21.9
09:45 1023 30.21 852 25.16 -0.6 30.8 70 -5.5 22.1
09:50 1023 30.21 852 25.16 -0.5 31.1 69 -5.5 22.1
09:55 1023 30.21 852 25.16 -0.5 31.2 71 -5.2 22.7
10:00 1023 30.21 852 25.16 -0.4 31.4 71 -5.1 22.9
10:05 1023 30.21 852 25.16 -0.3 31.5 68 -5.4 22.3
10:10 1023 30.21 852 25.16 -0.3 31.5 69 -5.3 22.5
10:15 1023 30.21 852 25.16 -0.2 31.6 71 -4.9 23.2
10:20 1023 30.21 852 25.16 -0.2 31.6 70 -5.1 22.9
10:25 1023 30.21 853 25.19 -0.2 31.6 72 -4.7 23.5
10:30 1023 30.21 853 25.19 -0.2 31.6 70 -5.1 22.8
10:35 1024 30.24 853 25.19 -0.2 31.6 70 -5.1 22.8
10:40 1023 30.21 853 25.19 -0.1 31.8 70 -4.9 23.1
10:45 1023 30.21 853 25.19 0 32 70 -4.8 23.3
10:50 1023 30.21 853 25.19 0 32 70 -4.9 23.2
10:55 1023 30.21 853 25.19 0.2 32.4 68 -4.9 23.2
11:00 1024 30.24 853 25.19 0.3 32.5 68 -5 23.1
11:05 1023 30.21 853 25.19 0.3 32.6 68 -4.8 23.3
11:10 1024 30.24 853 25.19 0.3 32.6 68 -4.8 23.3
11:15 1024 30.24 853 25.19 0.4 32.7 69 -4.7 23.5
11:20 1024 30.24 853 25.19 0.6 33.1 67 -4.7 23.5
11:25 1024 30.24 853 25.19 1 33.8 67 -4.4 24.1
11:30 1024 30.24 853 25.19 1 33.8 67 -4.5 23.9
11:35 1023 30.21 853 25.19 0.8 33.5 66 -4.9 23.3
11:40 1024 30.24 853 25.19 0.6 33 70 -4.4 24.1
11:45 1024 30.24 853 25.19 0.6 33.1 71 -4.1 24.6
11:50 1024 30.24 853 25.19 0.6 33.1 70 -4.2 24.5
11:55 1023 30.21 853 25.19 0.6 33.1 70 -4.3 24.2
12:00 1023 30.21 853 25.19 0.9 33.7 72 -3.6 25.5
12:05 1023 30.21 853 25.19 0.9 33.7 69 -4.1 24.5
12:10 1023 30.21 853 25.19 0.5 32.9 73 -3.7 25.3
12:15 1023 30.21 852 25.16 0.3 32.6 72 -4.2 24.4
12:20 1023 30.21 853 25.19 0.3 32.6 75 -3.6 25.5
12:25 1023 30.21 853 25.19 0.5 32.9 75 -3.5 25.7
12:30 1023 30.21 852 25.16 0.3 32.6 73 -4 24.7
12:35 1023 30.21 852 25.16 0.2 32.4 74 -3.9 25
12:40 1023 30.21 852 25.16 0.5 32.8 74 -3.6 25.6
12:45 1023 30.21 852 25.16 0.5 32.9 74 -3.7 25.4
12:50 1023 30.21 852 25.16 0.5 33 71 -4.1 24.6
12:55 1023 30.21 852 25.16 0.6 33.1 68 -4.7 23.6
13:00 1023 30.21 852 25.16 0.5 32.8 70 -4.3 24.2
13:05 1023 30.21 852 25.16 0.5 32.9 67 -4.8 23.3
13:10 1023 30.21 852 25.16 0.6 33.1 68 -4.5 23.8
13:15 1023 30.21 852 25.16 1 33.7 68 -4.4 24.2
13:20 1023 30.21 852 25.16 1.3 34.3 67 -4.1 24.6
13:25 1023 30.21 852 25.16 1.3 34.4 69 -3.8 25.2
13:30 1023 30.21 852 25.16 1.6 34.9 66 -4 24.7
13:35 1023 30.21 852 25.16 1.6 34.9 67 -3.8 25.2
13:40 1023 30.21 852 25.16 1.7 35.1 65 -4.2 24.5
13:45 1023 30.21 852 25.16 1.5 34.7 67 -4 24.9
13:50 1023 30.21 852 25.16 1.7 35.1 67 -3.8 25.1
13:55 1023 30.21 852 25.16 1.8 35.2 67 -3.8 25.2
14:00 1023 30.21 852 25.16 1.5 34.7 69 -3.6 25.6
14:05 1023 30.21 852 25.16 1.4 34.5 66 -4.2 24.5
14:10 1023 30.21 852 25.16 1.7 35 66 -4 24.8
14:15 1022 30.18 852 25.16 2 35.6 63 -4.2 24.4
14:20 1022 30.18 852 25.16 1.7 35.1 64 -4.4 24
14:25 1022 30.18 852 25.16 1.8 35.3 63 -4.5 23.9
14:30 1022 30.18 852 25.16 2.1 35.7 61 -4.7 23.5
14:35 1022 30.18 852 25.16 2 35.6 63 -4.3 24.3
14:40 1022 30.18 852 25.16 2.2 35.9 65 -3.8 25.2
14:45 1023 30.21 852 25.16 2.8 37.1 62 -3.7 25.3
14:50 1023 30.21 852 25.16 2.7 36.9 61 -4 24.7
14:55 1023 30.21 852 25.16 2.4 36.4 61 -4.4 24.1
15:00 1022 30.18 852 25.16 2.2 36 58 -5.1 22.7
15:05 1022 30.18 852 25.16 2.4 36.3 61 -4.4 24
15:10 1022 30.18 851 25.13 2.3 36.2 61 -4.3 24.2
15:15 1022 30.18 851 25.13 2.1 35.9 61 -4.7 23.5
15:20 1022 30.18 851 25.13 2.2 35.9 60 -4.7 23.5
15:25 1022 30.18 851 25.13 2.4 36.3 61 -4.4 24.1
15:30 1022 30.18 851 25.13 2.2 36 62 -4.2 24.4
15:35 1022 30.18 851 25.13 2.1 35.8 62 -4.4 24.1
15:40 1022 30.18 851 25.13 2.1 35.7 62 -4.4 24
15:45 1022 30.18 851 25.13 2.3 36.1 63 -4 24.8
15:50 1022 30.18 851 25.13 2.5 36.5 62 -4 24.8
15:55 1022 30.18 851 25.13 2.6 36.6 62 -4 24.8
16:00 1022 30.18 851 25.13 2.7 36.8 62 -3.9 24.9
16:05 1022 30.18 851 25.13 2.4 36.4 61 -4.3 24.3
16:10 1022 30.18 851 25.13 2.3 36.1 59 -5 23
16:15 1022 30.18 851 25.13 2.1 35.7 62 -4.5 23.8
16:20 1022 30.18 851 25.13 2.2 36 59 -4.9 23.2
16:25 1022 30.18 851 25.13 2.1 35.9 60 -4.7 23.5
16:30 1022 30.18 851 25.13 2 35.6 62 -4.6 23.7
16:35 1022 30.18 851 25.13 2.2 35.9 60 -4.7 23.5
16:40 1022 30.18 851 25.13 2.2 35.9 61 -4.5 23.9
16:45 1022 30.18 851 25.13 2.1 35.8 62 -4.4 24.1
16:50 1022 30.18 851 25.13 2.1 35.8 62 -4.3 24.2
16:55 1022 30.18 851 25.13 2.2 36 62 -4.4 24.1
17:00 1022 30.18 851 25.13 2.6 36.7 59 -4.5 23.9
17:05 1022 30.18 851 25.13 2.7 36.8 59 -4.6 23.8
17:10 1022 30.18 851 25.13 2.4 36.3 61 -4.4 24.1
17:15 1022 30.18 851 25.13 2.7 36.9 59 -4.4 24
17:20 1022 30.18 851 25.13 2.6 36.6 60 -4.5 23.9
17:25 1022 30.18 851 25.13 2.6 36.7 60 -4.4 24
17:30 1022 30.18 851 25.13 2.8 37.1 59 -4.5 24
17:35 1022 30.18 851 25.13 2.5 36.5 60 -4.6 23.8
17:40 1022 30.18 851 25.13 2.4 36.2 60 -4.5 23.8
17:45 1022 30.18 851 25.13 2.4 36.2 61 -4.5 23.9
17:50 1022 30.18 851 25.13 2.5 36.4 60 -4.6 23.8
17:55 1022 30.18 851 25.13 2.6 36.6 60 -4.3 24.2
18:00 1022 30.18 851 25.13 2.8 37.1 59 -4.3 24.3
18:05 1022 30.18 851 25.13 2.6 36.7 59 -4.5 23.8
18:10 1022 30.18 851 25.13 2.6 36.7 59 -4.7 23.5
18:15 1022 30.18 851 25.13 2.6 36.6 60 -4.4 24
18:20 1022 30.18 851 25.13 2.9 37.2 60 -4.2 24.4
18:25 1022 30.18 851 25.13 2.6 36.7 60 -4.4 24
18:30 1022 30.18 851 25.13 2.5 36.6 60 -4.4 24.2
18:35 1022 30.18 851 25.13 2.4 36.4 61 -4.4 24.1
18:40 1022 30.18 851 25.13 2.2 36 63 -4.2 24.5
18:45 1022 30.18 851 25.13 2.2 36 62 -4.3 24.3
18:50 1022 30.18 851 25.13 2.2 35.9 62 -4.3 24.3
18:55 1022 30.18 851 25.13 2.1 35.8 62 -4.4 24.1
19:00 1022 30.18 851 25.13 2 35.7 62 -4.4 24.1
19:05 1022 30.18 851 25.13 2 35.6 63 -4.3 24.3
19:10 1022 30.18 851 25.13 2.1 35.8 63 -4.3 24.3
19:15 1022 30.18 851 25.13 2 35.7 63 -4.2 24.5
19:20 1022 30.18 851 25.13 1.9 35.4 64 -4.2 24.5
19:25 1022 30.18 851 25.13 1.9 35.3 64 -4.2 24.5
19:30 1022 30.18 851 25.13 1.8 35.2 64 -4.3 24.2
19:35 1022 30.18 851 25.13 1.7 35.1 63 -4.6 23.8
19:40 1022 30.18 851 25.13 1.6 35 64 -4.4 24.1
19:45 1022 30.18 851 25.13 1.6 34.8 64 -4.5 23.9
19:50 1022 30.18 851 25.13 1.5 34.7 65 -4.4 24.1
19:55 1022 30.18 851 25.13 1.4 34.5 65 -4.4 24
20:00 1022 30.18 851 25.13 1.3 34.4 66 -4.3 24.2
20:05 1022 30.18 851 25.13 1.3 34.3 66 -4.4 24
20:10 1022 30.18 851 25.13 1.2 34.2 67 -4.2 24.4
20:15 1022 30.18 851 25.13 1.1 34 67 -4.4 24.1
20:20 1022 30.18 851 25.13 1.1 34 67 -4.4 24.1
20:25 1022 30.18 851 25.13 1.1 33.9 67 -4.4 24.1
20:30 1022 30.18 851 25.13 1 33.9 67 -4.4 24
20:35 1022 30.18 851 25.13 1 33.7 68 -4.3 24.2
20:40 1022 30.18 851 25.13 0.9 33.7 68 -4.3 24.3
20:45 1022 30.18 851 25.13 0.9 33.6 68 -4.3 24.2
20:50 1022 30.18 851 25.13 0.9 33.6 68 -4.3 24.2
20:55 1022 30.18 851 25.13 0.8 33.5 69 -4.2 24.4
21:00 1022 30.18 851 25.13 0.9 33.5 68 -4.4 24.1
21:05 1022 30.18 851 25.13 0.9 33.6 67 -4.5 23.9
21:10 1022 30.18 851 25.13 1 33.7 67 -4.6 23.8
21:15 1022 30.18 851 25.13 1 33.8 66 -4.7 23.6
21:20 1022 30.18 851 25.13 1 33.7 67 -4.5 24
21:25 1022 30.18 851 25.13 0.9 33.7 67 -4.6 23.7
21:30 1022 30.18 851 25.13 0.9 33.7 66 -4.8 23.4
21:35 1022 30.18 851 25.13 1 33.7 66 -4.8 23.4
21:40 1022 30.18 851 25.13 1 33.8 64 -5.1 22.8
21:45 1022 30.18 851 25.13 1 33.7 63 -5.2 22.6
21:50 1022 30.18 851 25.13 1 33.7 63 -5.3 22.4
21:55 1022 30.18 851 25.13 0.9 33.7 64 -5.1 22.8
22:00 1022 30.18 851 25.13 0.9 33.6 65 -5 22.9
22:05 1022 30.18 851 25.13 0.9 33.6 66 -4.9 23.2
22:10 1022 30.18 851 25.13 0.9 33.6 66 -4.8 23.4
22:15 1022 30.18 851 25.13 0.9 33.7 66 -4.8 23.4
22:20 1022 30.18 851 25.13 0.9 33.5 67 -4.7 23.6
22:25 1022 30.18 851 25.13 0.9 33.6 67 -4.6 23.8
22:30 1022 30.18 851 25.13 0.8 33.5 66 -4.7 23.5
22:35 1022 30.18 851 25.13 0.8 33.5 66 -4.7 23.5
22:40 1022 30.18 851 25.13 0.8 33.5 66 -4.8 23.3
22:45 1022 30.18 851 25.13 0.9 33.5 64 -5.2 22.7
22:50 1022 30.18 851 25.13 0.9 33.7 63 -5.3 22.4
22:55 1022 30.18 851 25.13 1 33.8 61 -5.8 21.6
23:00 1022 30.18 851 25.13 1 33.8 59 -6.1 21
23:05 1022 30.18 851 25.13 1 33.8 60 -5.9 21.4
23:10 1022 30.18 851 25.13 1 33.8 61 -5.6 21.9
23:15 1022 30.18 851 25.13 1 33.8 62 -5.5 22.1
23:20 1022 30.18 851 25.13 1 33.8 62 -5.4 22.3
23:25 1022 30.18 851 25.13 1 33.7 63 -5.3 22.4
23:30 1022 30.18 851 25.13 0.9 33.7 63 -5.4 22.4
23:35 1021 30.15 851 25.13 0.9 33.6 63 -5.4 22.2
23:40 1021 30.15 851 25.13 0.9 33.6 63 -5.4 22.3
23:45 1021 30.15 851 25.13 0.8 33.5 63 -5.4 22.2
23:50 1021 30.15 851 25.13 0.8 33.5 63 -5.4 22.2
23:55 1021 30.15 851 25.13 0.8 33.5 64 -5.3 22.4
24:00 1021 30.15 850 25.1 0.8 33.4 62 -5.7 21.7